Time;durP1;ratioP1;P1;durP2;ratioP2;P2;SDS_P1;SDS_P2;PMS_P1;PMS_P2;Temp;Humidity;BMP_temperature;BMP_pressure;BME280_temperature;BME280_humidity;BME280_pressure;Samples;Min_cycle;Max_cycle;Signal;HPM_P1;HPM_P2
2021/07/12 00:00:39;;;;;;;6.50;5.07;;;18.20;99.90;;;;;;5079977;28;20202;-70
2021/07/12 00:03:07;;;;;;;5.20;4.60;;;18.10;99.90;;;;;;5080003;28;20664;-70
2021/07/12 00:05:34;;;;;;;5.82;5.30;;;18.10;99.90;;;;;;5080141;28;20203;-70
2021/07/12 00:08:01;;;;;;;6.20;5.68;;;18.20;99.90;;;;;;5079933;28;20218;-70
2021/07/12 00:10:30;;;;;;;5.65;5.15;;;18.20;99.90;;;;;;5079735;28;20679;-70
2021/07/12 00:12:57;;;;;;;5.80;5.20;;;18.20;99.90;;;;;;5080243;28;20202;-70
2021/07/12 00:15:27;;;;;;;4.85;4.45;;;18.10;99.90;;;;;;5079949;28;20202;-70
2021/07/12 00:17:53;;;;;;;6.10;4.60;;;18.10;99.90;;;;;;5080058;28;20610;-70
2021/07/12 00:20:21;;;;;;;5.63;5.13;;;18.00;99.90;;;;;;5079637;28;20687;-70
2021/07/12 00:22:49;;;;;;;5.10;4.70;;;18.10;99.90;;;;;;5080133;28;20202;-70
2021/07/12 00:25:17;;;;;;;4.70;4.30;;;18.00;99.90;;;;;;5079920;28;20564;-70
2021/07/12 00:27:45;;;;;;;4.63;4.20;;;17.90;99.90;;;;;;5079637;28;20668;-70
2021/07/12 00:30:14;;;;;;;4.50;4.10;;;17.70;99.90;;;;;;5079511;28;20214;-70
2021/07/12 00:32:43;;;;;;;4.32;4.03;;;17.70;99.90;;;;;;5079838;28;20198;-70
2021/07/12 00:35:12;;;;;;;5.00;4.40;;;17.70;99.90;;;;;;5079635;28;20198;-70
2021/07/12 00:37:40;;;;;;;4.80;4.40;;;17.80;99.90;;;;;;5079563;28;20218;-70
2021/07/12 00:40:10;;;;;;;4.10;3.80;;;17.50;99.90;;;;;;5079635;28;20207;-70
2021/07/12 00:42:37;;;;;;;4.43;4.13;;;17.50;99.90;;;;;;5079548;28;20198;-70
2021/07/12 00:45:06;;;;;;;5.75;4.18;;;17.50;99.90;;;;;;5079643;28;20209;-70
2021/07/12 00:47:33;;;;;;;5.10;4.65;;;17.60;99.90;;;;;;5079587;28;20205;-70
2021/07/12 00:50:02;;;;;;;5.20;4.70;;;17.60;99.90;;;;;;5079535;28;20208;-70
2021/07/12 00:52:28;;;;;;;5.45;4.47;;;17.50;99.90;;;;;;5079626;28;20241;-70
2021/07/12 00:54:55;;;;;;;4.70;4.30;;;17.60;99.90;;;;;;5079498;28;20630;-70
2021/07/12 00:57:22;;;;;;;5.85;4.63;;;17.60;99.90;;;;;;5079487;28;20233;-70
2021/07/12 00:59:51;;;;;;;5.70;5.00;;;17.60;99.90;;;;;;5079084;28;20716;-71
2021/07/12 01:02:18;;;;;;;5.00;4.50;;;17.60;99.90;;;;;;5079197;28;20202;-70
2021/07/12 01:04:45;;;;;;;5.55;5.05;;;17.50;99.90;;;;;;5079275;28;20679;-70
2021/07/12 01:07:13;;;;;;;4.90;4.40;;;17.50;99.90;;;;;;5079519;28;20205;-70
2021/07/12 01:09:44;;;;;;;4.25;3.85;;;17.60;99.90;;;;;;5075418;28;20219;-70
2021/07/12 01:12:21;;;;;;;5.57;5.07;;;17.60;99.90;;;;;;5076111;28;20202;-70
2021/07/12 01:14:54;;;;;;;4.22;3.92;;;17.60;99.90;;;;;;5076219;28;20207;-70
2021/07/12 01:17:30;;;;;;;4.90;4.50;;;17.50;99.90;;;;;;5076532;28;20244;-70
2021/07/12 01:20:39;;;;;;;4.57;4.25;;;17.20;99.90;;;;;;5075912;28;20647;-69
2021/07/12 01:23:29;;;;;;;5.00;4.50;;;17.20;99.90;;;;;;5066134;28;20320;-70
2021/07/12 01:26:41;;;;;;;5.30;4.82;;;17.30;99.90;;;;;;5076055;28;20573;-70
2021/07/12 01:29:23;;;;;;;5.55;5.05;;;17.30;99.90;;;;;;5039004;28;20230;-70
2021/07/12 01:32:04;;;;;;;5.35;4.95;;;17.30;99.90;;;;;;5075552;28;20665;-70
2021/07/12 01:34:39;;;;;;;4.93;4.25;;;17.30;99.90;;;;;;5075896;28;20209;-70
2021/07/12 01:37:15;;;;;;;4.57;4.18;;;17.40;99.90;;;;;;5075669;28;20219;-70
2021/07/12 01:39:48;;;;;;;4.10;3.80;;;17.30;99.90;;;;;;5075444;28;20222;-70
2021/07/12 01:42:22;;;;;;;5.47;4.55;;;17.30;99.90;;;;;;5075800;28;20203;-70
2021/07/12 01:44:58;;;;;;;4.50;4.05;;;17.30;99.90;;;;;;5075715;28;20224;-70
2021/07/12 01:47:33;;;;;;;4.05;3.75;;;17.40;99.90;;;;;;5075592;28;20210;-70
2021/07/12 01:50:05;;;;;;;4.03;3.72;;;17.30;99.90;;;;;;5075377;28;20332;-70
2021/07/12 01:52:38;;;;;;;4.80;4.40;;;17.20;99.90;;;;;;5075592;28;20206;-70
2021/07/12 01:55:12;;;;;;;5.68;4.25;;;17.10;99.90;;;;;;5075535;28;20212;-70
2021/07/12 01:57:48;;;;;;;5.50;5.00;;;16.90;99.90;;;;;;5075190;28;20583;-70
2021/07/12 02:00:16;;;;;;;5.35;4.85;;;16.70;99.90;;;;;;5075008;28;20728;-70
2021/07/12 02:02:45;;;;;;;5.60;5.10;;;16.60;99.90;;;;;;5075247;28;20213;-70
2021/07/12 02:05:18;;;;;;;5.57;5.07;;;16.70;99.90;;;;;;5075276;28;20224;-70
2021/07/12 02:07:47;;;;;;;5.55;5.07;;;16.80;99.90;;;;;;5075182;28;20217;-70
2021/07/12 02:10:18;;;;;;;6.85;5.47;;;16.90;99.90;;;;;;5074766;28;20679;-70
2021/07/12 02:12:48;;;;;;;6.00;5.40;;;16.90;99.90;;;;;;5075284;28;20206;-70
2021/07/12 02:15:16;;;;;;;5.45;4.95;;;16.90;99.90;;;;;;5075011;28;20206;-70
2021/07/12 02:17:44;;;;;;;7.38;5.28;;;16.90;99.90;;;;;;5074637;28;20230;-70
2021/07/12 02:20:12;;;;;;;4.85;4.45;;;16.90;99.90;;;;;;5074701;28;20202;-70
2021/07/12 02:22:42;;;;;;;5.47;4.97;;;16.90;99.90;;;;;;5074764;28;20214;-70
2021/07/12 02:25:12;;;;;;;5.25;4.70;;;16.90;99.90;;;;;;5074850;28;20202;-70
2021/07/12 02:27:39;;;;;;;4.97;4.50;;;16.90;99.90;;;;;;5074645;28;20248;-70
2021/07/12 02:30:08;;;;;;;5.72;4.95;;;16.90;99.90;;;;;;5074366;28;20232;-70
2021/07/12 02:32:37;;;;;;;5.45;5.00;;;17.00;99.90;;;;;;5074740;28;20300;-70
2021/07/12 02:35:06;;;;;;;5.00;4.60;;;17.10;99.90;;;;;;5074684;28;20199;-70
2021/07/12 02:37:37;;;;;;;5.10;4.70;;;17.10;99.90;;;;;;5074514;28;20222;-70
2021/07/12 02:40:08;;;;;;;5.15;4.70;;;17.10;99.90;;;;;;5074401;28;20186;-70
2021/07/12 02:42:36;;;;;;;5.30;4.80;;;17.10;99.90;;;;;;5074553;28;20203;-70
2021/07/12 02:45:06;;;;;;;5.93;5.30;;;17.00;99.90;;;;;;5074458;28;20206;-70
2021/07/12 02:47:34;;;;;;;5.55;5.05;;;17.00;99.90;;;;;;5074391;28;20294;-70
2021/07/12 02:50:02;;;;;;;6.05;5.45;;;17.00;99.90;;;;;;5074255;28;20568;-70
2021/07/12 02:52:36;;;;;;;5.18;4.75;;;17.10;99.90;;;;;;5074238;28;20213;-70
2021/07/12 02:55:05;;;;;;;5.45;4.95;;;17.10;99.90;;;;;;5074229;28;20598;-70
2021/07/12 02:57:33;;;;;;;4.93;4.45;;;16.90;99.90;;;;;;5074100;28;20631;-70
2021/07/12 02:59:59;;;;;;;5.72;5.15;;;16.80;99.90;;;;;;5074001;28;20222;-71
2021/07/12 03:02:27;;;;;;;6.85;5.85;;;16.80;99.90;;;;;;5074030;28;20201;-70
2021/07/12 03:04:53;;;;;;;5.88;5.38;;;16.90;99.90;;;;;;5074075;28;20209;-70
2021/07/12 03:07:26;;;;;;;6.10;5.60;;;16.80;99.90;;;;;;5074058;28;20301;-70
2021/07/12 03:09:56;;;;;;;6.43;5.80;;;16.80;99.90;;;;;;5073854;28;20256;-69
2021/07/12 03:12:32;;;;;;;5.35;4.95;;;16.80;99.90;;;;;;5073797;28;20203;-70
2021/07/12 03:15:04;;;;;;;6.90;5.50;;;16.80;99.90;;;;;;5073961;28;20206;-70
2021/07/12 03:17:35;;;;;;;5.43;4.93;;;16.80;99.90;;;;;;5073784;28;20247;-70
2021/07/12 03:20:06;;;;;;;5.95;5.45;;;16.70;99.90;;;;;;5073781;28;20552;-70
2021/07/12 03:22:35;;;;;;;5.63;5.10;;;16.70;99.90;;;;;;5073874;28;20293;-70
2021/07/12 03:25:04;;;;;;;5.80;4.82;;;16.50;99.90;;;;;;5073648;28;20213;-70
2021/07/12 03:27:33;;;;;;;5.47;4.97;;;16.60;99.90;;;;;;5073752;28;20199;-70
2021/07/12 03:30:04;;;;;;;5.55;5.05;;;16.60;99.90;;;;;;5073107;28;20728;-71
2021/07/12 03:32:32;;;;;;;6.13;5.22;;;16.60;99.90;;;;;;5073243;28;20209;-70
2021/07/12 03:35:00;;;;;;;5.68;5.15;;;16.70;99.90;;;;;;5073527;28;20208;-70
2021/07/12 03:37:27;;;;;;;5.78;5.18;;;16.60;99.90;;;;;;5073405;28;20611;-70
2021/07/12 03:39:54;;;;;;;5.47;4.95;;;16.60;99.90;;;;;;5073458;28;20222;-69
2021/07/12 03:42:22;;;;;;;5.88;5.28;;;16.40;99.90;;;;;;5073550;28;20210;-70
2021/07/12 03:44:53;;;;;;;6.95;5.20;;;16.30;99.90;;;;;;5073515;28;20260;-70
2021/07/12 03:47:28;;;;;;;7.28;6.53;;;16.30;99.90;;;;;;5073600;28;20210;-70
2021/07/12 03:50:03;;;;;;;5.57;4.85;;;16.40;99.90;;;;;;5073359;28;20249;-71
2021/07/12 03:52:34;;;;;;;5.00;4.60;;;16.50;99.90;;;;;;5073555;28;20206;-70
2021/07/12 03:55:00;;;;;;;4.93;4.40;;;16.50;99.90;;;;;;5073427;28;20232;-70
2021/07/12 03:57:27;;;;;;;4.40;4.00;;;16.50;99.90;;;;;;5073387;28;20229;-70
2021/07/12 03:59:55;;;;;;;5.20;4.70;;;16.50;99.90;;;;;;5073275;28;20229;-70
2021/07/12 04:02:22;;;;;;;5.78;4.68;;;16.60;99.90;;;;;;5073401;28;20203;-70
2021/07/12 04:04:49;;;;;;;5.40;4.90;;;16.60;99.90;;;;;;5073425;28;20199;-70
2021/07/12 04:07:16;;;;;;;5.20;4.80;;;16.60;99.90;;;;;;5073272;28;20201;-70
2021/07/12 04:09:43;;;;;;;5.20;4.80;;;16.70;99.90;;;;;;5073223;28;20257;-70
2021/07/12 04:12:10;;;;;;;7.28;5.28;;;16.60;99.90;;;;;;5073137;28;20208;-70
2021/07/12 04:14:37;;;;;;;8.65;6.95;;;16.70;99.90;;;;;;5073298;28;20605;-70
2021/07/12 04:17:05;;;;;;;6.30;5.70;;;16.60;99.90;;;;;;5073031;28;20227;-70
2021/07/12 04:19:32;;;;;;;6.18;5.00;;;16.50;99.90;;;;;;5073246;28;20305;-70
2021/07/12 04:21:59;;;;;;;6.70;5.47;;;16.40;99.90;;;;;;5072971;28;20296;-70
2021/07/12 04:24:26;;;;;;;7.53;5.00;;;16.40;99.90;;;;;;5072916;28;20712;-70
2021/07/12 04:26:53;;;;;;;6.30;4.65;;;16.30;99.90;;;;;;5073534;28;20208;-70
2021/07/12 04:29:19;;;;;;;7.22;5.32;;;16.20;99.90;;;;;;5072916;28;20233;-70
2021/07/12 04:31:48;;;;;;;6.88;5.90;;;16.10;99.90;;;;;;5072832;28;20296;-70
2021/07/12 04:34:17;;;;;;;6.60;5.53;;;16.00;99.90;;;;;;5073143;28;20569;-70
2021/07/12 04:36:44;;;;;;;6.22;5.20;;;16.00;99.90;;;;;;5072916;28;20290;-70
2021/07/12 04:39:10;;;;;;;6.57;5.25;;;16.10;99.90;;;;;;5073014;28;20230;-70
2021/07/12 04:41:37;;;;;;;5.53;5.03;;;16.20;99.90;;;;;;5072899;28;20209;-70
2021/07/12 04:44:05;;;;;;;6.15;5.55;;;16.30;99.90;;;;;;5074481;28;20206;-70
2021/07/12 04:46:32;;;;;;;9.27;5.53;;;16.40;99.90;;;;;;5076712;28;20579;-70
2021/07/12 04:48:58;;;;;;;5.60;5.10;;;16.30;99.90;;;;;;5076390;28;20225;-70
2021/07/12 04:51:27;;;;;;;5.45;4.95;;;16.40;99.90;;;;;;5076486;28;20205;-70
2021/07/12 04:53:54;;;;;;;4.97;4.40;;;16.40;99.90;;;;;;5076558;28;20206;-70
2021/07/12 04:56:21;;;;;;;5.97;5.38;;;16.40;99.90;;;;;;5076395;28;20631;-70
2021/07/12 04:58:48;;;;;;;5.40;4.90;;;16.50;99.90;;;;;;5076378;28;20264;-70
2021/07/12 05:01:16;;;;;;;5.65;5.15;;;16.60;99.90;;;;;;5076239;28;20216;-70
2021/07/12 05:03:43;;;;;;;5.68;5.18;;;16.70;99.90;;;;;;5076308;28;20214;-70
2021/07/12 05:06:10;;;;;;;5.85;5.25;;;16.80;99.90;;;;;;5076364;28;20293;-70
2021/07/12 05:08:39;;;;;;;9.10;6.05;;;16.80;99.90;;;;;;5076359;28;20215;-70
2021/07/12 05:11:05;;;;;;;7.82;5.80;;;16.90;99.90;;;;;;5076127;28;20203;-70
2021/07/12 05:13:33;;;;;;;5.75;5.15;;;16.90;99.90;;;;;;5076258;28;20209;-70
2021/07/12 05:15:59;;;;;;;5.57;5.03;;;16.80;99.90;;;;;;5076175;28;20207;-70
2021/07/12 05:18:26;;;;;;;6.28;5.63;;;16.80;99.90;;;;;;5076012;28;20241;-70
2021/07/12 05:20:53;;;;;;;6.60;6.03;;;16.80;99.90;;;;;;5075973;28;20206;-70
2021/07/12 05:23:20;;;;;;;6.43;5.80;;;16.60;99.90;;;;;;5075815;28;20202;-70
2021/07/12 05:25:48;;;;;;;7.40;6.63;;;16.50;99.90;;;;;;5076080;28;20207;-70
2021/07/12 05:28:15;;;;;;;6.97;6.28;;;16.40;99.90;;;;;;5075829;28;20743;-70
2021/07/12 05:30:42;;;;;;;7.50;6.70;;;16.40;99.90;;;;;;5075949;28;20309;-70
2021/07/12 05:33:10;;;;;;;7.80;6.25;;;16.40;99.90;;;;;;5075834;28;20210;-70
2021/07/12 05:35:38;;;;;;;6.35;5.75;;;16.50;99.90;;;;;;5075906;28;20561;-70
2021/07/12 05:38:05;;;;;;;7.18;5.97;;;16.60;99.90;;;;;;5075657;28;20234;-70
2021/07/12 05:40:32;;;;;;;6.32;5.65;;;16.70;99.90;;;;;;5075669;28;20210;-70
2021/07/12 05:43:00;;;;;;;6.75;6.05;;;16.80;99.90;;;;;;5075736;28;20206;-70
2021/07/12 05:45:27;;;;;;;7.88;7.10;;;16.80;99.90;;;;;;5075658;28;20210;-70
2021/07/12 05:47:54;;;;;;;7.10;6.40;;;16.70;99.90;;;;;;5075338;28;20209;-70
2021/07/12 05:50:22;;;;;;;7.32;6.63;;;16.70;99.90;;;;;;5075457;28;20203;-70
2021/07/12 05:52:49;;;;;;;9.63;8.00;;;16.70;99.90;;;;;;5075514;28;20209;-70
2021/07/12 05:55:16;;;;;;;7.60;6.45;;;16.70;99.90;;;;;;5074840;28;20687;-70
2021/07/12 05:57:43;;;;;;;12.32;8.20;;;16.80;99.90;;;;;;5075294;28;20229;-70
2021/07/12 06:00:13;;;;;;;15.27;8.68;;;16.80;99.90;;;;;;5075244;28;20203;-70
2021/07/12 06:02:40;;;;;;;8.20;7.40;;;16.90;99.90;;;;;;5075176;28;20191;-70
2021/07/12 06:05:08;;;;;;;10.40;7.80;;;17.00;99.90;;;;;;5075309;28;20203;-70
2021/07/12 06:07:35;;;;;;;10.13;7.13;;;17.20;99.90;;;;;;5075251;28;20202;-70
2021/07/12 06:10:02;;;;;;;14.07;6.90;;;17.30;99.90;;;;;;5074987;28;20230;-70
2021/07/12 06:12:29;;;;;;;7.55;6.85;;;17.50;99.90;;;;;;5074809;28;20202;-69
2021/07/12 06:14:56;;;;;;;6.50;5.90;;;17.50;99.90;;;;;;5075114;28;20206;-70
2021/07/12 06:17:24;;;;;;;5.50;5.00;;;17.60;99.90;;;;;;5074770;28;20222;-70
2021/07/12 06:19:51;;;;;;;5.13;4.72;;;17.60;99.90;;;;;;5074846;28;20219;-70
2021/07/12 06:22:18;;;;;;;5.03;4.60;;;17.70;99.90;;;;;;5074938;28;20209;-70
2021/07/12 06:24:44;;;;;;;4.20;3.80;;;17.70;99.90;;;;;;5074705;28;20574;-70
2021/07/12 06:27:11;;;;;;;3.40;3.20;;;17.90;99.90;;;;;;5074802;28;20238;-70
2021/07/12 06:29:38;;;;;;;3.53;3.28;;;18.00;99.90;;;;;;5074355;28;20316;-70
2021/07/12 06:32:06;;;;;;;3.55;2.70;;;18.20;99.90;;;;;;5074666;28;20561;-70
2021/07/12 06:34:34;;;;;;;3.45;3.15;;;18.40;99.90;;;;;;5074710;28;20204;-70
2021/07/12 06:37:01;;;;;;;3.63;3.33;;;18.50;99.90;;;;;;5074674;28;20211;-70
2021/07/12 06:39:28;;;;;;;3.30;3.10;;;18.70;99.90;;;;;;5074291;28;20226;-70
2021/07/12 06:41:55;;;;;;;3.42;3.17;;;18.80;99.90;;;;;;5074168;28;20218;-70
2021/07/12 06:44:22;;;;;;;3.40;3.20;;;18.90;99.90;;;;;;5074508;28;20241;-70
2021/07/12 06:46:49;;;;;;;3.60;3.30;;;19.00;99.90;;;;;;5074464;28;20528;-70
2021/07/12 06:49:15;;;;;;;3.20;3.00;;;19.20;99.90;;;;;;5074104;28;21056;-70
2021/07/12 06:51:44;;;;;;;3.33;2.93;;;19.30;99.90;;;;;;5074228;28;20859;-70
2021/07/12 06:54:10;;;;;;;3.30;3.03;;;19.50;99.90;;;;;;5074204;28;20983;-70
2021/07/12 06:56:37;;;;;;;3.30;3.00;;;19.80;99.90;;;;;;5074270;28;20450;-70
2021/07/12 06:59:04;;;;;;;3.60;3.27;;;19.90;99.90;;;;;;5073861;28;20490;-70
2021/07/12 07:01:31;;;;;;;3.30;3.10;;;20.20;99.90;;;;;;5073868;28;20534;-70
2021/07/12 07:03:58;;;;;;;3.93;3.60;;;20.50;99.90;;;;;;5074001;28;20444;-70
2021/07/12 07:06:24;;;;;;;4.20;3.10;;;20.70;99.90;;;;;;5073318;28;20798;-70
2021/07/12 07:08:53;;;;;;;3.67;3.37;;;20.90;99.90;;;;;;5073885;28;20902;-70
2021/07/12 07:11:20;;;;;;;3.30;3.00;;;21.00;99.90;;;;;;5073626;28;20459;-70
2021/07/12 07:13:46;;;;;;;3.70;3.40;;;21.00;99.90;;;;;;5073930;28;20814;-70
2021/07/12 07:16:13;;;;;;;4.30;3.03;;;21.10;99.90;;;;;;5073982;28;20547;-70
2021/07/12 07:18:40;;;;;;;4.17;3.30;;;21.20;99.90;;;;;;5073812;28;20598;-70
2021/07/12 07:21:07;;;;;;;3.30;3.00;;;21.40;99.90;;;;;;5073874;28;20547;-70
2021/07/12 07:23:34;;;;;;;3.27;2.97;;;21.40;99.90;;;;;;5073834;28;20444;-70
2021/07/12 07:26:02;;;;;;;3.40;3.10;;;21.60;99.90;;;;;;5073839;28;20441;-70
2021/07/12 07:28:29;;;;;;;3.10;2.90;;;21.70;99.90;;;;;;5074029;28;20812;-70
2021/07/12 07:30:56;;;;;;;3.47;3.17;;;21.80;99.90;;;;;;5073298;28;20453;-70
2021/07/12 07:33:26;;;;;;;3.60;3.10;;;21.80;99.90;;;;;;5073746;28;20537;-70
2021/07/12 07:35:53;;;;;;;3.17;2.97;;;21.80;99.90;;;;;;5073925;28;20449;-70
2021/07/12 07:38:19;;;;;;;3.00;2.80;;;21.90;99.90;;;;;;5073605;28;20851;-70
2021/07/12 07:40:46;;;;;;;2.90;2.70;;;22.00;99.90;;;;;;5073260;28;20945;-70
2021/07/12 07:43:15;;;;;;;3.00;2.80;;;22.00;99.90;;;;;;5073657;28;20527;-70
2021/07/12 07:45:42;;;;;;;4.83;3.10;;;21.90;99.90;;;;;;5073604;28;20442;-70
2021/07/12 07:48:09;;;;;;;2.63;2.43;;;22.00;99.90;;;;;;5073363;28;20475;-70
2021/07/12 07:50:39;;;;;;;2.53;2.33;;;22.00;99.90;;;;;;5073353;28;20491;-70
2021/07/12 07:53:07;;;;;;;3.10;2.77;;;22.10;99.90;;;;;;5073354;28;20487;-70
2021/07/12 07:55:34;;;;;;;2.70;2.50;;;22.60;99.90;;;;;;5073465;28;20525;-70
2021/07/12 07:58:01;;;;;;;3.50;2.40;;;23.40;99.90;;;;;;5073405;28;20490;-70
2021/07/12 08:00:30;;;;;;;3.00;2.20;;;24.20;99.90;;;;;;5073050;28;20492;-71
2021/07/12 08:02:57;;;;;;;2.90;2.70;;;25.00;99.90;;;;;;5073165;28;20532;-71
2021/07/12 08:05:24;;;;;;;3.30;2.90;;;25.60;99.90;;;;;;5073428;28;20437;-71
2021/07/12 08:07:51;;;;;;;3.27;3.07;;;26.20;99.10;;;;;;5073365;28;20451;-71
2021/07/12 08:10:19;;;;;;;2.73;2.30;;;26.60;97.50;;;;;;5073255;28;20528;-70
2021/07/12 08:12:48;;;;;;;2.63;2.43;;;27.10;96.50;;;;;;5073333;28;20459;-70
2021/07/12 08:15:17;;;;;;;2.73;2.53;;;27.50;95.00;;;;;;5073254;28;20448;-70
2021/07/12 08:17:47;;;;;;;2.97;2.77;;;27.70;92.60;;;;;;5074134;28;20521;-71
2021/07/12 08:20:16;;;;;;;2.77;2.53;;;28.40;92.70;;;;;;5077334;28;20430;-71
2021/07/12 08:22:44;;;;;;;2.80;2.40;;;29.30;91.20;;;;;;5077385;28;20445;-71
2021/07/12 08:25:12;;;;;;;2.20;2.10;;;30.30;90.50;;;;;;5077247;28;20446;-71
2021/07/12 08:27:39;;;;;;;2.17;2.07;;;30.50;82.70;;;;;;5077165;28;20454;-71
2021/07/12 08:30:07;;;;;;;2.47;2.27;;;30.30;78.80;;;;;;5076702;28;20891;-70
2021/07/12 08:32:34;;;;;;;2.53;2.33;;;30.40;80.80;;;;;;5077098;28;20804;-71
2021/07/12 08:35:04;;;;;;;2.67;2.47;;;30.60;78.50;;;;;;5077015;28;20444;-71
2021/07/12 08:37:31;;;;;;;2.43;2.33;;;30.50;79.60;;;;;;5076957;28;20441;-71
2021/07/12 08:39:57;;;;;;;2.50;2.30;;;30.70;79.30;;;;;;5076686;28;20490;-71
2021/07/12 08:42:24;;;;;;;2.43;2.33;;;30.60;80.80;;;;;;5076863;28;20440;-71
2021/07/12 08:44:51;;;;;;;2.80;2.60;;;31.40;78.20;;;;;;5076539;28;20484;-71
2021/07/12 08:47:18;;;;;;;2.20;2.10;;;32.80;67.10;;;;;;5076512;28;20931;-71
2021/07/12 08:49:45;;;;;;;2.33;2.20;;;33.20;61.70;;;;;;5076423;28;20993;-71
2021/07/12 08:52:13;;;;;;;2.10;2.00;;;33.90;62.60;;;;;;5076568;28;20537;-71
2021/07/12 08:54:40;;;;;;;2.00;1.90;;;35.00;58.20;;;;;;5076580;28;20927;-71
2021/07/12 08:57:07;;;;;;;2.20;2.10;;;35.80;55.50;;;;;;5076535;28;20437;-71
2021/07/12 08:59:36;;;;;;;2.27;2.17;;;36.60;52.20;;;;;;5076162;28;20986;-71
2021/07/12 09:02:08;;;;;;;2.00;1.90;;;37.00;49.50;;;;;;5076370;28;20448;-71
2021/07/12 09:04:37;;;;;;;3.90;3.20;;;38.20;48.30;;;;;;5076434;28;20463;-71
2021/07/12 09:07:06;;;;;;;2.37;2.13;;;39.20;48.10;;;;;;5076416;28;20455;-69
2021/07/12 09:09:35;;;;;;;2.10;2.00;;;39.30;45.50;;;;;;5076114;28;20463;-70
2021/07/12 09:12:13;;;;;;;2.07;1.97;;;38.90;43.90;;;;;;5076201;28;20440;-69
2021/07/12 09:14:40;;;;;;;1.70;1.60;;;39.40;43.30;;;;;;5076377;28;20445;-69
2021/07/12 09:17:08;;;;;;;2.03;1.93;;;40.30;42.80;;;;;;5076093;28;20441;-71
2021/07/12 09:19:36;;;;;;;1.67;1.67;;;40.80;42.60;;;;;;5075860;28;21004;-70
2021/07/12 09:22:07;;;;;;;2.00;1.90;;;41.10;39.60;;;;;;5075954;28;20945;-70
2021/07/12 09:24:41;;;;;;;1.97;1.87;;;40.60;41.20;;;;;;5075872;28;20558;-69
2021/07/12 09:27:14;;;;;;;2.47;2.37;;;40.40;37.60;;;;;;5076128;28;20524;-70
2021/07/12 09:29:42;;;;;;;3.43;2.30;;;40.00;38.90;;;;;;5075489;28;20904;-70
2021/07/12 09:32:11;;;;;;;2.27;2.17;;;39.90;39.70;;;;;;5075850;28;20437;-70
2021/07/12 09:34:38;;;;;;;2.30;1.90;;;39.90;41.40;;;;;;5075898;28;20472;-70
2021/07/12 09:37:07;;;;;;;2.13;2.03;;;40.30;40.00;;;;;;5075959;28;20801;-70
2021/07/12 09:39:38;;;;;;;2.23;2.00;;;39.70;39.70;;;;;;5076241;28;20572;-70
2021/07/12 09:42:08;;;;;;;2.53;2.33;;;38.90;39.00;;;;;;5075787;28;20531;-70
2021/07/12 09:44:37;;;;;;;2.33;2.17;;;38.80;41.40;;;;;;5076395;28;20451;-70
2021/07/12 09:47:10;;;;;;;2.43;2.33;;;38.30;43.20;;;;;;5075927;28;20442;-70
2021/07/12 09:49:38;;;;;;;2.50;2.40;;;38.20;42.70;;;;;;5075859;28;20465;-70
2021/07/12 09:52:08;;;;;;;2.23;2.13;;;38.20;43.70;;;;;;5075696;28;20961;-70
2021/07/12 09:54:39;;;;;;;2.30;2.20;;;38.70;41.80;;;;;;5076500;28;20802;-70
2021/07/12 09:57:10;;;;;;;2.20;2.10;;;39.10;40.80;;;;;;5076229;28;20459;-70
2021/07/12 09:59:52;;;;;;;2.70;2.60;;;39.30;40.70;;;;;;5075991;28;20469;-70
2021/07/12 10:02:22;;;;;;;1.90;1.80;;;38.80;40.10;;;;;;5076136;28;20776;-70
2021/07/12 10:04:51;;;;;;;2.30;2.13;;;39.10;41.60;;;;;;5075684;28;20442;-70
2021/07/12 10:07:19;;;;;;;2.27;2.10;;;39.10;40.10;;;;;;5076244;28;20532;-70
2021/07/12 10:09:48;;;;;;;2.20;2.10;;;39.10;39.00;;;;;;5075238;28;20491;-70
2021/07/12 10:12:16;;;;;;;2.10;2.00;;;38.60;41.90;;;;;;5075256;28;20451;-70
2021/07/12 10:14:43;;;;;;;2.40;2.30;;;38.30;40.60;;;;;;5075203;28;20528;-70
2021/07/12 10:17:11;;;;;;;2.10;2.00;;;38.20;41.00;;;;;;5075501;28;20437;-70
2021/07/12 10:19:39;;;;;;;2.50;2.30;;;38.50;40.30;;;;;;5075402;28;20471;-70
2021/07/12 10:22:06;;;;;;;2.30;2.20;;;38.20;40.20;;;;;;5074961;28;20472;-70
2021/07/12 10:24:38;;;;;;;2.37;2.27;;;37.80;43.60;;;;;;5074924;28;20447;-70
2021/07/12 10:27:08;;;;;;;2.40;2.20;;;37.30;43.10;;;;;;5074962;28;20451;-70
2021/07/12 10:29:37;;;;;;;2.30;2.20;;;36.70;42.40;;;;;;5074465;28;20489;-70
2021/07/12 10:32:08;;;;;;;2.27;2.17;;;36.00;43.50;;;;;;5074678;28;20437;-69
2021/07/12 10:34:37;;;;;;;2.30;2.20;;;35.00;46.60;;;;;;5074978;28;20451;-71
2021/07/12 10:37:16;;;;;;;2.20;2.10;;;34.00;46.30;;;;;;5074946;28;20437;-71
2021/07/12 10:40:19;;;;;;;2.13;2.03;;;33.10;48.80;;;;;;5074821;28;20477;-71
2021/07/12 10:42:53;;;;;;;2.50;2.40;;;32.10;52.50;;;;;;4993309;28;20997;-71
2021/07/12 10:45:22;;;;;;;3.53;2.50;;;31.40;54.70;;;;;;4993435;28;20483;-72
2021/07/12 10:47:50;;;;;;;2.50;2.10;;;30.70;56.00;;;;;;5036100;28;20445;-72
2021/07/12 10:50:55;;;;;;;2.47;2.27;;;30.20;56.30;;;;;;5075970;28;20487;-72
2021/07/12 10:53:35;;;;;;;2.70;2.50;;;30.00;59.80;;;;;;5075815;28;20536;-71
2021/07/12 10:56:07;;;;;;;2.67;2.47;;;29.60;60.50;;;;;;5074822;28;20432;-71
2021/07/12 10:58:49;;;;;;;2.50;2.30;;;29.30;61.30;;;;;;5074529;28;20589;-71
2021/07/12 11:01:35;;;;;;;5.23;3.30;;;29.00;65.90;;;;;;5074197;28;20430;-71
2021/07/12 11:04:02;;;;;;;2.10;2.00;;;28.70;61.20;;;;;;5074306;28;20930;-71
2021/07/12 11:06:54;;;;;;;2.70;2.60;;;28.50;64.50;;;;;;5074272;28;20451;-71
2021/07/12 11:09:45;;;;;;;3.13;2.93;;;28.20;64.90;;;;;;5074405;28;20484;-71
2021/07/12 11:12:28;;;;;;;2.90;2.70;;;28.00;68.10;;;;;;5074140;28;20437;-71
2021/07/12 11:15:14;;;;;;;2.20;2.10;;;27.80;69.50;;;;;;5071298;28;20453;-71
2021/07/12 11:18:00;;;;;;;2.33;2.23;;;27.90;74.50;;;;;;5073906;28;20449;-71
2021/07/12 11:21:04;;;;;;;2.20;2.10;;;27.90;71.90;;;;;;5073933;28;20792;-71
2021/07/12 11:23:52;;;;;;;2.73;2.53;;;27.90;78.40;;;;;;5067396;28;20444;-71
2021/07/12 11:26:48;;;;;;;2.90;2.70;;;28.10;77.40;;;;;;5073933;28;20535;-71
2021/07/12 11:29:30;;;;;;;2.20;2.07;;;28.30;72.10;;;;;;5073559;28;21030;-71
2021/07/12 11:32:07;;;;;;;2.50;2.30;;;28.60;67.70;;;;;;5073746;28;20867;-71
2021/07/12 11:34:37;;;;;;;2.17;2.07;;;28.60;68.40;;;;;;5073899;28;20522;-71
2021/07/12 11:37:05;;;;;;;2.77;2.57;;;28.50;64.80;;;;;;5073823;28;20445;-71
2021/07/12 11:39:35;;;;;;;2.47;2.37;;;28.50;65.70;;;;;;5073653;28;20551;-71
2021/07/12 11:42:16;;;;;;;3.03;2.83;;;28.50;63.40;;;;;;5073642;28;20479;-71
2021/07/12 11:45:05;;;;;;;2.60;2.40;;;28.60;62.40;;;;;;5073736;28;20436;-71
2021/07/12 11:47:35;;;;;;;2.97;2.67;;;28.60;65.70;;;;;;5068014;28;20811;-71
2021/07/12 11:50:06;;;;;;;2.40;2.30;;;28.60;70.60;;;;;;5073038;28;20488;-71
2021/07/12 11:52:33;;;;;;;2.47;2.27;;;28.60;66.90;;;;;;5073217;28;20450;-71
2021/07/12 11:55:07;;;;;;;2.77;2.57;;;28.70;67.00;;;;;;5073542;28;20444;-71
2021/07/12 11:57:35;;;;;;;3.77;3.43;;;28.80;67.80;;;;;;5073653;28;20454;-71
2021/07/12 12:00:02;;;;;;;2.53;2.43;;;28.60;65.70;;;;;;5073656;28;20814;-71
2021/07/12 12:02:29;;;;;;;3.60;3.37;;;28.70;68.00;;;;;;5073468;28;20454;-71
2021/07/12 12:04:58;;;;;;;2.90;2.70;;;28.60;66.00;;;;;;5073521;28;20528;-71
2021/07/12 12:07:34;;;;;;;2.70;2.50;;;28.50;67.80;;;;;;5073325;28;20453;-71
2021/07/12 12:10:05;;;;;;;2.43;2.33;;;28.50;68.10;;;;;;5073258;28;20489;-71
2021/07/12 12:12:34;;;;;;;2.90;2.70;;;28.60;69.80;;;;;;5073414;28;20450;-71
2021/07/12 12:15:04;;;;;;;2.40;2.20;;;28.50;68.60;;;;;;5073462;28;20439;-71
2021/07/12 12:17:33;;;;;;;2.47;2.37;;;28.60;67.90;;;;;;5073496;28;20784;-71
2021/07/12 12:20:22;;;;;;;2.60;2.40;;;28.70;65.40;;;;;;5073108;28;20463;-70
2021/07/12 12:23:07;;;;;;;2.10;2.00;;;28.90;65.40;;;;;;5073355;28;20851;-71
2021/07/12 12:25:41;;;;;;;2.60;2.40;;;29.00;65.10;;;;;;5073333;28;20921;-71
2021/07/12 12:28:08;;;;;;;3.80;3.50;;;29.00;64.30;;;;;;5073171;28;20472;-71
2021/07/12 12:30:36;;;;;;;2.50;2.30;;;29.20;65.80;;;;;;5072885;28;20489;-71
2021/07/12 12:33:04;;;;;;;2.63;2.40;;;29.20;63.20;;;;;;5073250;28;20449;-71
2021/07/12 12:35:33;;;;;;;2.50;2.30;;;29.10;65.80;;;;;;5073053;28;20960;-70
2021/07/12 12:38:11;;;;;;;2.40;2.30;;;29.00;65.90;;;;;;5072938;28;20454;-71
2021/07/12 12:40:38;;;;;;;2.80;2.60;;;29.10;65.40;;;;;;5073001;28;20522;-71
2021/07/12 12:43:12;;;;;;;2.40;2.20;;;29.10;64.40;;;;;;5073049;28;20443;-71
2021/07/12 12:45:46;;;;;;;2.97;2.77;;;29.20;64.30;;;;;;5073247;28;20437;-71
2021/07/12 12:48:12;;;;;;;2.43;2.33;;;29.30;65.10;;;;;;5072775;28;20469;-71
2021/07/12 12:50:41;;;;;;;2.40;2.30;;;29.30;64.20;;;;;;5072825;28;20925;-71
2021/07/12 12:53:09;;;;;;;2.60;2.50;;;29.30;63.50;;;;;;5072940;28;20451;-71
2021/07/12 12:55:37;;;;;;;2.60;2.50;;;29.40;63.20;;;;;;5073702;28;20546;-71
2021/07/12 12:58:09;;;;;;;2.53;2.43;;;29.40;63.30;;;;;;5072695;28;20476;-71
2021/07/12 13:00:36;;;;;;;2.30;2.20;;;29.20;61.50;;;;;;5072732;28;20449;-71